createdAt,value
2019-01-24T00:00:26.488Z,109.20
2019-01-24T00:02:54.764Z,107.37
2019-01-24T00:05:23.051Z,102.92
2019-01-24T00:07:51.324Z,109.20
2019-01-24T00:10:19.563Z,108.55
2019-01-24T00:12:47.839Z,117.72
2019-01-24T00:15:16.101Z,114.52
2019-01-24T00:17:44.357Z,120.30
2019-01-24T00:20:14.472Z,107.22
2019-01-24T00:22:42.756Z,103.35
2019-01-24T00:25:11.073Z,105.35
2019-01-24T00:27:39.339Z,112.20
2019-01-24T00:30:15.541Z,111.35
2019-01-24T00:32:43.861Z,103.30
2019-01-24T00:35:12.143Z,111.90
2019-01-24T00:37:40.416Z,109.55
2019-01-24T00:40:12.060Z,117.47
2019-01-24T00:42:40.298Z,110.25
2019-01-24T00:45:09.002Z,111.50
2019-01-24T00:47:37.259Z,110.55
2019-01-24T00:50:08.465Z,113.95
2019-01-24T00:52:36.726Z,109.45
2019-01-24T00:55:10.550Z,117.50
2019-01-24T00:57:38.810Z,98.72
2019-01-24T01:00:10.342Z,105.85
2019-01-24T01:02:38.598Z,112.20
2019-01-24T01:05:08.992Z,117.87
2019-01-24T01:07:37.274Z,108.35
2019-01-24T01:10:07.678Z,107.80
2019-01-24T01:12:35.945Z,118.30
2019-01-24T01:15:07.405Z,108.63
2019-01-24T01:17:35.669Z,119.70
2019-01-24T01:20:06.636Z,109.50
2019-01-24T01:22:34.903Z,115.28
2019-01-24T01:25:03.527Z,106.75
2019-01-24T01:27:31.811Z,114.75
2019-01-24T01:30:00.058Z,114.80
2019-01-24T01:32:28.569Z,119.65
2019-01-24T01:34:56.829Z,114.22
2019-01-24T01:37:25.088Z,110.20
2019-01-24T01:39:53.344Z,110.22
2019-01-24T01:42:21.611Z,126.82
2019-01-24T01:44:49.887Z,114.17
2019-01-24T01:47:18.130Z,119.62
2019-01-24T01:49:46.401Z,122.55
2019-01-24T01:52:14.665Z,106.43
2019-01-24T01:54:42.906Z,122.55
2019-01-24T01:57:11.171Z,116.03
2019-01-24T01:59:39.409Z,123.70
2019-01-24T02:02:07.670Z,110.12
2019-01-24T02:04:35.914Z,107.60
2019-01-24T02:07:04.461Z,110.48
2019-01-24T02:09:32.702Z,111.77
2019-01-24T02:12:00.961Z,132.87
2019-01-24T02:14:29.234Z,106.67
2019-01-24T02:16:57.474Z,109.37
2019-01-24T02:19:25.734Z,114.80
2019-01-24T02:21:53.991Z,115.25
2019-01-24T02:24:22.258Z,108.27
2019-01-24T02:26:50.512Z,114.92
2019-01-24T02:29:18.772Z,117.95
2019-01-24T02:31:47.047Z,105.20
2019-01-24T02:34:15.308Z,116.93
2019-01-24T02:36:43.567Z,110.80
2019-01-24T02:39:11.809Z,109.85
2019-01-24T02:41:40.065Z,113.72
2019-01-24T02:44:08.341Z,106.05
2019-01-24T02:46:36.650Z,111.42
2019-01-24T02:49:04.894Z,115.97
2019-01-24T02:51:33.173Z,115.50
2019-01-24T02:54:01.438Z,99.50
2019-01-24T02:56:29.691Z,121.28
2019-01-24T02:58:57.937Z,107.40
2019-01-24T03:01:26.199Z,114.72
2019-01-24T03:03:54.460Z,110.42
2019-01-24T03:06:22.701Z,111.47
2019-01-24T03:08:50.960Z,111.32
2019-01-24T03:11:19.221Z,112.77
2019-01-24T03:13:47.474Z,119.65
2019-01-24T03:16:15.736Z,116.45
2019-01-24T03:18:43.993Z,114.88
2019-01-24T03:21:12.252Z,107.72
2019-01-24T03:23:40.500Z,111.45
2019-01-24T03:26:08.783Z,113.77
2019-01-24T03:28:37.071Z,125.22
2019-01-24T03:31:05.372Z,115.65
2019-01-24T03:33:33.677Z,110.80
2019-01-24T03:36:01.931Z,123.82
2019-01-24T03:38:30.200Z,113.32
2019-01-24T03:40:58.483Z,127.25
2019-01-24T03:43:26.744Z,114.90
2019-01-24T03:45:55.028Z,123.80
2019-01-24T03:48:23.286Z,136.43
2019-01-24T03:50:51.554Z,106.27
2019-01-24T03:53:19.812Z,107.37
2019-01-24T03:55:48.071Z,107.00
2019-01-24T03:58:16.327Z,101.67
2019-01-24T04:00:44.580Z,116.97
2019-01-24T04:03:12.837Z,124.02
2019-01-24T04:05:41.092Z,118.05
2019-01-24T04:08:09.344Z,108.67
2019-01-24T04:10:37.584Z,121.13
2019-01-24T04:13:05.860Z,124.38
2019-01-24T04:15:34.170Z,118.75
2019-01-24T04:18:02.472Z,125.90
2019-01-24T04:20:30.713Z,103.87
2019-01-24T04:22:58.995Z,118.30
2019-01-24T04:25:27.253Z,122.15
2019-01-24T04:27:55.556Z,120.45
2019-01-24T04:30:23.945Z,121.70
2019-01-24T04:32:52.190Z,116.42
2019-01-24T04:35:20.548Z,126.87
2019-01-24T04:37:48.778Z,121.02
2019-01-24T04:40:18.491Z,117.28
2019-01-24T04:42:46.749Z,111.12
2019-01-24T04:45:16.456Z,111.32
2019-01-24T04:47:44.697Z,113.32
2019-01-24T04:50:17.010Z,119.57
2019-01-24T04:52:45.291Z,119.08
2019-01-24T04:55:15.579Z,116.40
2019-01-24T04:57:43.907Z,119.93
2019-01-24T05:00:26.792Z,125.20
2019-01-24T05:02:55.125Z,114.08
2019-01-24T05:05:27.861Z,115.50
2019-01-24T05:07:53.372Z,121.17
2019-01-24T05:10:21.649Z,116.42
2019-01-24T05:12:49.884Z,121.05
2019-01-24T05:15:19.207Z,115.20
2019-01-24T05:17:47.481Z,106.43
2019-01-24T05:20:15.725Z,120.00
2019-01-24T05:22:43.989Z,116.67
2019-01-24T05:25:14.302Z,119.20
2019-01-24T05:27:42.574Z,109.03
2019-01-24T05:30:17.058Z,123.62
2019-01-24T05:32:45.320Z,121.35
2019-01-24T05:35:13.611Z,119.70
2019-01-24T05:37:41.870Z,122.22
2019-01-24T05:40:10.304Z,128.55
2019-01-24T05:42:38.554Z,113.55
2019-01-24T05:45:12.667Z,117.60
2019-01-24T05:47:40.912Z,115.47
2019-01-24T05:50:11.009Z,115.20
2019-01-24T05:52:39.277Z,106.03
2019-01-24T05:55:09.779Z,118.47
2019-01-24T05:57:38.052Z,118.17
2019-01-24T06:00:09.527Z,117.77
2019-01-24T06:02:37.780Z,125.58
2019-01-24T06:05:08.365Z,122.17
2019-01-24T06:07:36.625Z,120.15
2019-01-24T06:10:08.131Z,112.92
2019-01-24T06:12:36.409Z,115.95
2019-01-24T06:15:07.190Z,127.55
2019-01-24T06:17:35.461Z,109.65
2019-01-24T06:20:06.448Z,116.88
2019-01-24T06:22:34.727Z,121.17
2019-01-24T06:25:03.830Z,119.37
2019-01-24T06:27:32.097Z,125.47
2019-01-24T06:30:00.358Z,118.02
2019-01-24T06:32:28.602Z,113.72
2019-01-24T06:34:56.870Z,114.20
2019-01-24T06:37:25.113Z,116.25
2019-01-24T06:39:53.357Z,117.40
2019-01-24T06:42:21.621Z,116.73
2019-01-24T06:44:49.884Z,116.42
2019-01-24T06:47:18.154Z,120.60
2019-01-24T06:49:46.434Z,117.97
2019-01-24T06:52:14.684Z,115.50
2019-01-24T06:54:42.938Z,108.40
2019-01-24T06:57:11.186Z,118.65
2019-01-24T06:59:39.454Z,117.40
2019-01-24T07:02:07.711Z,117.20
2019-01-24T07:04:35.974Z,112.28
2019-01-24T07:07:04.316Z,125.75
2019-01-24T07:09:32.593Z,114.28
2019-01-24T07:12:00.857Z,125.18
2019-01-24T07:14:29.111Z,111.97
2019-01-24T07:16:57.367Z,111.42
2019-01-24T07:19:25.629Z,114.35
2019-01-24T07:21:53.896Z,108.63
2019-01-24T07:24:22.157Z,113.20
2019-01-24T07:26:50.411Z,107.05
2019-01-24T07:29:18.720Z,106.55
2019-01-24T07:31:46.987Z,119.35
2019-01-24T07:34:15.252Z,112.25
2019-01-24T07:36:43.555Z,95.40
2019-01-24T07:39:11.785Z,105.85
2019-01-24T07:41:40.040Z,109.92
2019-01-24T07:44:08.304Z,106.20
2019-01-24T07:46:36.578Z,106.20
2019-01-24T07:49:04.902Z,106.03
2019-01-24T07:51:33.188Z,100.80
2019-01-24T07:54:01.550Z,104.58
2019-01-24T07:56:29.803Z,103.55
2019-01-24T07:58:58.060Z,104.55
2019-01-24T08:01:26.336Z,107.10
2019-01-24T08:03:54.598Z,102.47
2019-01-24T08:06:22.842Z,104.55
2019-01-24T08:08:51.103Z,109.27
2019-01-24T08:11:19.361Z,98.95
2019-01-24T08:13:47.625Z,100.18
2019-01-24T08:16:15.877Z,109.63
2019-01-24T08:18:44.188Z,103.20
2019-01-24T08:21:12.430Z,111.08
2019-01-24T08:23:40.702Z,107.47
2019-01-24T08:26:08.954Z,104.78
2019-01-24T08:28:37.209Z,109.83
2019-01-24T08:31:05.474Z,120.35
2019-01-24T08:33:33.733Z,114.65
2019-01-24T08:36:01.997Z,106.70
2019-01-24T08:38:30.269Z,113.57
2019-01-24T08:40:58.553Z,92.88
2019-01-24T08:43:26.805Z,106.25
2019-01-24T08:45:55.049Z,104.40
2019-01-24T08:48:23.309Z,105.90
2019-01-24T08:50:51.554Z,105.80
2019-01-24T08:53:19.814Z,103.47
2019-01-24T08:55:48.059Z,93.33
2019-01-24T08:58:16.334Z,105.78
2019-01-24T09:00:44.614Z,92.82
2019-01-24T09:03:14.553Z,100.00
2019-01-24T09:05:42.815Z,99.62
2019-01-24T09:08:11.076Z,105.20
2019-01-24T09:10:39.348Z,103.50
2019-01-24T09:13:07.623Z,104.67
2019-01-24T09:15:35.945Z,107.40
2019-01-24T09:18:04.254Z,113.77
2019-01-24T09:20:32.534Z,105.90
2019-01-24T09:23:00.777Z,118.97
2019-01-24T09:25:29.022Z,112.10
2019-01-24T09:27:57.292Z,94.72
2019-01-24T09:30:27.605Z,97.33
2019-01-24T09:32:55.874Z,111.45
2019-01-24T09:35:24.129Z,106.15
2019-01-24T09:37:52.396Z,106.70
2019-01-24T09:40:21.973Z,97.62
2019-01-24T09:42:50.231Z,97.40
2019-01-24T09:45:23.598Z,98.97
2019-01-24T09:47:52.394Z,98.27
2019-01-24T09:50:23.236Z,84.13
2019-01-24T09:52:51.515Z,97.67
2019-01-24T09:55:19.761Z,100.58
2019-01-24T09:57:48.092Z,86.57
2019-01-24T10:00:22.908Z,102.75
2019-01-24T10:02:51.171Z,97.60
2019-01-24T10:05:19.428Z,102.25
2019-01-24T10:07:47.715Z,95.38
2019-01-24T10:10:18.004Z,99.65
2019-01-24T10:12:46.247Z,98.75
2019-01-24T10:15:16.364Z,105.12
2019-01-24T10:17:44.890Z,94.92
2019-01-24T10:20:15.192Z,94.07
2019-01-24T10:22:43.449Z,101.02
2019-01-24T10:25:15.514Z,100.82
2019-01-24T10:27:43.983Z,95.55
2019-01-24T10:30:15.241Z,100.05
2019-01-24T10:32:43.552Z,93.37
2019-01-24T10:35:11.782Z,95.80
2019-01-24T10:37:40.050Z,89.37
2019-01-24T10:40:11.701Z,98.70
2019-01-24T10:42:40.073Z,95.75
2019-01-24T10:45:13.775Z,98.45
2019-01-24T10:47:42.056Z,94.45
2019-01-24T10:50:13.099Z,89.58
2019-01-24T10:52:41.360Z,99.70
2019-01-24T10:55:13.651Z,104.45
2019-01-24T10:57:41.989Z,90.92
2019-01-24T11:00:16.892Z,94.95
2019-01-24T11:02:45.178Z,88.72
2019-01-24T11:05:18.141Z,97.80
2019-01-24T11:07:46.747Z,98.47
2019-01-24T11:10:17.414Z,92.25
2019-01-24T11:12:46.029Z,92.45
2019-01-24T11:15:16.911Z,87.22
2019-01-24T11:17:45.163Z,90.07
2019-01-24T11:20:15.951Z,84.62
2019-01-24T11:22:44.233Z,81.25
2019-01-24T11:25:15.489Z,82.45
2019-01-24T11:27:43.783Z,87.00
2019-01-24T11:30:15.265Z,80.90
2019-01-24T11:32:43.548Z,95.35
2019-01-24T11:35:14.921Z,89.47
2019-01-24T11:37:43.190Z,81.72
2019-01-24T11:40:13.996Z,75.35
2019-01-24T11:42:42.233Z,93.05
2019-01-24T11:45:12.563Z,88.52
2019-01-24T11:47:40.803Z,86.82
2019-01-24T11:50:14.262Z,83.85
2019-01-24T11:52:42.525Z,85.32
2019-01-24T11:55:12.913Z,93.52
2019-01-24T11:57:41.250Z,80.53
2019-01-24T12:00:21.607Z,87.12
2019-01-24T12:02:49.859Z,94.52
2019-01-24T12:05:18.125Z,82.08
2019-01-24T12:07:46.585Z,92.70
2019-01-24T12:10:24.354Z,83.20
2019-01-24T12:12:52.595Z,92.05
2019-01-24T12:15:26.218Z,86.20
2019-01-24T12:17:54.455Z,83.10
2019-01-24T12:20:24.135Z,86.40
2019-01-24T12:22:52.396Z,92.82
2019-01-24T12:25:21.816Z,80.87
2019-01-24T12:27:50.115Z,85.70
2019-01-24T12:30:29.336Z,88.82
2019-01-24T12:32:58.140Z,81.47
2019-01-24T12:35:26.761Z,78.65
2019-01-24T12:37:55.081Z,81.82
2019-01-24T12:40:23.331Z,81.28
2019-01-24T12:42:51.589Z,88.40
2019-01-24T12:45:24.939Z,83.78
2019-01-24T12:47:53.221Z,86.87
2019-01-24T12:50:21.462Z,91.28
2019-01-24T12:52:49.984Z,87.02
2019-01-24T12:55:18.226Z,81.63
2019-01-24T12:57:46.519Z,87.22
2019-01-24T13:00:20.944Z,87.40
2019-01-24T13:02:49.192Z,92.57
2019-01-24T13:05:17.476Z,82.65
2019-01-24T13:07:45.723Z,89.87
2019-01-24T13:10:19.807Z,90.32
2019-01-24T13:12:48.061Z,92.15
2019-01-24T13:15:18.654Z,93.67
2019-01-24T13:17:46.933Z,80.60
2019-01-24T13:20:16.348Z,89.40
2019-01-24T13:22:44.604Z,95.95
2019-01-24T13:25:15.857Z,86.28
2019-01-24T13:27:44.110Z,86.87
2019-01-24T13:30:21.002Z,94.17
2019-01-24T13:32:49.275Z,90.90
2019-01-24T13:35:17.532Z,83.45
2019-01-24T13:37:45.788Z,88.42
2019-01-24T13:40:28.354Z,91.32
2019-01-24T13:42:56.756Z,87.72
2019-01-24T13:45:27.242Z,84.83
2019-01-24T13:47:55.508Z,92.08
2019-01-24T13:50:23.819Z,90.60
2019-01-24T13:52:52.142Z,94.45
2019-01-24T13:55:20.416Z,89.77
2019-01-24T13:57:48.667Z,92.62
2019-01-24T14:00:19.176Z,88.75
2019-01-24T14:02:49.771Z,84.77
2019-01-24T14:05:19.090Z,93.62
2019-01-24T14:07:47.330Z,86.02
2019-01-24T14:10:17.055Z,94.60
2019-01-24T14:12:45.336Z,91.53
2019-01-24T14:15:18.476Z,84.72
2019-01-24T14:17:46.778Z,87.97
2019-01-24T14:20:17.606Z,90.05
2019-01-24T14:22:45.898Z,93.80
2019-01-24T14:25:17.203Z,88.15
2019-01-24T14:27:45.612Z,88.65
2019-01-24T14:30:19.090Z,89.22
2019-01-24T14:32:47.353Z,93.80
2019-01-24T14:35:15.600Z,94.37
2019-01-24T14:37:43.858Z,90.97
2019-01-24T14:40:14.119Z,96.22
2019-01-24T14:42:42.377Z,101.95
2019-01-24T14:45:13.749Z,92.88
2019-01-24T14:47:42.020Z,95.70
2019-01-24T14:50:13.561Z,93.67
2019-01-24T14:52:41.832Z,105.95
2019-01-24T14:55:11.846Z,95.12
2019-01-24T14:57:40.092Z,103.60
2019-01-24T15:00:23.475Z,97.45
2019-01-24T15:02:51.736Z,95.62
2019-01-24T15:05:19.995Z,94.90
2019-01-24T15:07:48.243Z,98.70
2019-01-24T15:10:16.593Z,98.17
2019-01-24T15:12:44.849Z,97.67
2019-01-24T15:15:17.396Z,105.35
2019-01-24T15:17:45.680Z,103.70
2019-01-24T15:20:16.057Z,96.55
2019-01-24T15:22:44.323Z,96.53
2019-01-24T15:25:14.505Z,95.40
2019-01-24T15:27:42.855Z,102.07
2019-01-24T15:30:14.313Z,99.28
2019-01-24T15:32:42.653Z,103.75
2019-01-24T15:35:10.912Z,105.60
2019-01-24T15:37:39.196Z,103.02
2019-01-24T15:40:10.726Z,93.35
2019-01-24T15:42:38.990Z,93.33
2019-01-24T15:45:10.684Z,95.35
2019-01-24T15:47:38.922Z,108.05
2019-01-24T15:50:10.425Z,104.43
2019-01-24T15:52:38.678Z,102.72
2019-01-24T15:55:07.969Z,103.53
2019-01-24T15:57:36.212Z,108.42
2019-01-24T16:00:16.314Z,103.30
2019-01-24T16:02:44.567Z,102.10
2019-01-24T16:05:12.905Z,111.95
2019-01-24T16:07:41.161Z,107.45
2019-01-24T16:10:14.712Z,99.77
2019-01-24T16:12:42.991Z,100.65
2019-01-24T16:15:22.884Z,114.52
2019-01-24T16:17:51.148Z,96.78
2019-01-24T16:20:22.181Z,101.38
2019-01-24T16:22:50.433Z,105.52
2019-01-24T16:25:20.931Z,110.35
2019-01-24T16:27:49.206Z,106.37
2019-01-24T16:30:23.196Z,102.85
2019-01-24T16:32:51.453Z,96.35
2019-01-24T16:35:20.540Z,109.60
2019-01-24T16:37:48.808Z,105.43
2019-01-24T16:40:19.702Z,103.30
2019-01-24T16:42:47.955Z,102.00
2019-01-24T16:45:18.914Z,100.85
2019-01-24T16:47:47.189Z,92.92
2019-01-24T16:50:17.374Z,108.03
2019-01-24T16:52:45.649Z,93.80
2019-01-24T16:55:15.531Z,106.10
2019-01-24T16:57:43.870Z,98.10
2019-01-24T17:00:23.707Z,117.90
2019-01-24T17:02:51.985Z,113.37
2019-01-24T17:05:20.250Z,101.50
2019-01-24T17:07:48.486Z,107.30
2019-01-24T17:10:22.283Z,101.12
2019-01-24T17:12:50.553Z,114.57
2019-01-24T17:15:19.346Z,107.87
2019-01-24T17:17:47.590Z,108.05
2019-01-24T17:20:30.073Z,107.65
2019-01-24T17:22:58.324Z,111.20
2019-01-24T17:25:28.657Z,110.12
2019-01-24T17:27:56.917Z,110.60
2019-01-24T17:30:30.147Z,113.62
2019-01-24T17:32:58.687Z,111.25
2019-01-24T17:35:26.955Z,125.20
2019-01-24T17:37:55.245Z,119.77
2019-01-24T17:40:25.428Z,118.47
2019-01-24T17:42:53.707Z,112.65
2019-01-24T17:45:22.026Z,120.20
2019-01-24T17:47:50.368Z,115.42
2019-01-24T17:50:18.611Z,113.25
2019-01-24T17:52:46.897Z,122.25
2019-01-24T17:55:30.652Z,110.85
2019-01-24T17:57:58.953Z,120.25
2019-01-24T18:00:28.839Z,123.87
2019-01-24T18:02:57.081Z,112.25
2019-01-24T18:05:25.343Z,128.65
2019-01-24T18:07:53.607Z,111.52
2019-01-24T18:10:29.505Z,110.03
2019-01-24T18:12:57.782Z,116.97
2019-01-24T18:15:33.569Z,115.80
2019-01-24T18:18:01.814Z,110.15
2019-01-24T18:20:33.016Z,116.47
2019-01-24T18:23:01.417Z,124.80
2019-01-24T18:25:29.960Z,116.62
2019-01-24T18:27:58.219Z,115.97
2019-01-24T18:30:29.782Z,126.82
2019-01-24T18:32:58.118Z,130.35
2019-01-24T18:35:26.375Z,115.60
2019-01-24T18:37:54.631Z,115.37
2019-01-24T18:40:24.832Z,111.05
2019-01-24T18:42:53.593Z,120.67
2019-01-24T18:45:25.209Z,123.90
2019-01-24T18:47:53.475Z,112.42
2019-01-24T18:50:22.198Z,121.22
2019-01-24T18:52:50.775Z,112.92
2019-01-24T18:55:19.145Z,118.75
2019-01-24T18:57:47.958Z,126.72
2019-01-24T19:00:22.888Z,122.62
2019-01-24T19:02:51.156Z,128.02
2019-01-24T19:05:19.512Z,123.28
2019-01-24T19:07:47.777Z,118.82
2019-01-24T19:10:16.035Z,130.82
2019-01-24T19:12:44.290Z,119.93
2019-01-24T19:15:17.917Z,132.57
2019-01-24T19:17:46.953Z,127.25
2019-01-24T19:20:16.178Z,133.90
2019-01-24T19:22:44.537Z,122.35
2019-01-24T19:25:14.660Z,131.37
2019-01-24T19:27:42.907Z,139.12
2019-01-24T19:30:14.603Z,126.00
2019-01-24T19:32:42.855Z,125.53
2019-01-24T19:35:11.119Z,123.92
2019-01-24T19:37:39.361Z,124.22
2019-01-24T19:40:11.118Z,177.90
2019-01-24T19:42:39.399Z,143.40
2019-01-24T19:45:13.270Z,141.65
2019-01-24T19:47:41.537Z,150.30
2019-01-24T19:50:12.734Z,142.75
2019-01-24T19:52:40.990Z,131.03
2019-01-24T19:55:11.187Z,129.23
2019-01-24T19:57:39.466Z,130.65
2019-01-24T20:00:11.047Z,133.15
2019-01-24T20:02:39.323Z,136.80
2019-01-24T20:05:10.005Z,124.40
2019-01-24T20:07:38.306Z,141.68
2019-01-24T20:10:24.083Z,138.25
2019-01-24T20:12:52.352Z,132.15
2019-01-24T20:15:22.450Z,130.20
2019-01-24T20:17:50.698Z,140.68
2019-01-24T20:20:19.026Z,122.13
2019-01-24T20:22:48.424Z,120.22
2019-01-24T20:25:18.908Z,122.07
2019-01-24T20:27:47.159Z,104.97
2019-01-24T20:30:30.210Z,91.72
2019-01-24T20:32:59.620Z,90.72
2019-01-24T20:35:31.140Z,93.10
2019-01-24T20:37:59.398Z,93.60
2019-01-24T20:40:27.661Z,91.22
2019-01-24T20:42:55.907Z,95.40
2019-01-24T20:45:24.151Z,98.07
2019-01-24T20:47:52.477Z,91.25
2019-01-24T20:50:20.728Z,94.42
2019-01-24T20:52:48.987Z,98.20
2019-01-24T20:55:17.263Z,102.82
2019-01-24T20:57:45.522Z,99.17
2019-01-24T21:00:24.620Z,101.35
2019-01-24T21:02:54.010Z,102.78
2019-01-24T21:05:41.693Z,103.62
2019-01-24T21:08:09.976Z,111.32
2019-01-24T21:10:38.225Z,107.50
2019-01-24T21:13:06.489Z,98.85
2019-01-24T21:15:34.752Z,95.30
2019-01-24T21:18:03.024Z,101.18
2019-01-24T21:20:32.435Z,92.27
2019-01-24T21:23:00.669Z,82.17
2019-01-24T21:25:28.918Z,87.02
2019-01-24T21:27:57.191Z,89.52
2019-01-24T21:30:33.703Z,100.90
2019-01-24T21:33:01.982Z,93.65
2019-01-24T21:35:30.217Z,96.45
2019-01-24T21:37:58.498Z,98.12
2019-01-24T21:40:26.746Z,94.32
2019-01-24T21:42:54.977Z,92.95
2019-01-24T21:45:32.077Z,97.08
2019-01-24T21:48:00.323Z,97.85
2019-01-24T21:50:30.538Z,106.07
2019-01-24T21:52:58.824Z,107.25
2019-01-24T21:55:27.154Z,96.25
2019-01-24T21:57:55.400Z,97.92
2019-01-24T22:00:25.504Z,101.58
2019-01-24T22:02:53.775Z,100.47
2019-01-24T22:05:22.094Z,110.80
2019-01-24T22:07:50.374Z,99.25
2019-01-24T22:10:28.933Z,100.55
2019-01-24T22:12:57.197Z,100.00
2019-01-24T22:15:27.632Z,99.25
2019-01-24T22:17:55.861Z,89.70
2019-01-24T22:20:24.105Z,97.15
2019-01-24T22:22:52.366Z,107.27
2019-01-24T22:25:23.440Z,101.15
2019-01-24T22:27:51.676Z,109.03
2019-01-24T22:30:22.848Z,112.40
2019-01-24T22:32:51.130Z,114.80
2019-01-24T22:35:19.403Z,114.03
2019-01-24T22:37:47.659Z,126.40
2019-01-24T22:40:16.021Z,111.68
2019-01-24T22:42:44.274Z,106.95
2019-01-24T22:45:26.468Z,119.85
2019-01-24T22:47:54.725Z,129.78
2019-01-24T22:50:22.969Z,124.42
2019-01-24T22:52:51.259Z,119.33
2019-01-24T22:55:19.509Z,134.45
2019-01-24T22:57:47.768Z,127.20
2019-01-24T23:00:35.760Z,130.57
2019-01-24T23:03:04.495Z,125.45
2019-01-24T23:05:32.769Z,116.45
2019-01-24T23:08:01.010Z,118.20
2019-01-24T23:10:29.284Z,112.92
2019-01-24T23:12:57.616Z,119.62
2019-01-24T23:15:25.881Z,121.33
2019-01-24T23:17:54.173Z,131.55
2019-01-24T23:20:22.434Z,118.25
2019-01-24T23:22:50.763Z,126.53
2019-01-24T23:25:19.019Z,119.08
2019-01-24T23:27:47.281Z,105.27
2019-01-24T23:30:15.542Z,109.90
2019-01-24T23:32:43.801Z,109.75
2019-01-24T23:35:12.066Z,114.65
2019-01-24T23:37:40.319Z,110.28
2019-01-24T23:40:09.714Z,115.82
2019-01-24T23:42:37.978Z,117.15
2019-01-24T23:45:08.783Z,109.97
2019-01-24T23:47:37.031Z,122.28
2019-01-24T23:50:07.047Z,106.32
2019-01-24T23:52:35.483Z,108.15
2019-01-24T23:55:05.195Z,107.03
2019-01-24T23:57:33.438Z,115.62
